Latest Weather Observations for Neptune Island

IDS60801

Issued at 11:05 pm CST Tuesday 30 September 2014 (issued every 30 minutes, with the page automatically refreshed every 10 minutes)

About weather observations | Map of weather stations | Latest weather observations for SA | Other Formats
Station Details ID: 018115 Name: NEPTUNE ISLAND Lat: -35.34 Lon: 136.12 Height: 32.0 m
Data from the previous 72 hours. | See also: Recent months at Neptune Island
Date/Time
CST
Temp
°C
App
Temp
°C
Dew
Point
Rel
Hum
%
Delta-T
°C
Wind Press
QNH
hPa
Press
MSL
hPa
Rain
since 9 am
mm
Dir
 
Spd
km/h
Gust
km/h
Spd
kts
Gust
kts
30/11:00pm 13.5 6.4 7.9 69 2.8 SSW 35 41 19 22 1023.3 1023.3 0.4
30/10:30pm 13.5 6.3 7.7 68 2.8 SSW 35 41 19 22 1023.0 1023.0 0.4
30/10:00pm 13.7 6.8 7.2 65 3.2 SSW 33 39 18 21 1022.8 1022.8 0.4
30/09:30pm 13.6 6.3 7.2 65 3.1 SSW 35 43 19 23 1022.6 1022.6 0.4
30/09:00pm 13.7 5.1 6.3 61 3.5 SW 41 50 22 27 1022.2 1022.2 0.4
30/08:30pm 13.6 4.9 6.2 61 3.5 SSW 41 48 22 26 1021.9 1021.9 0.4
30/08:00pm 13.9 5.3 8.1 68 2.9 SW 43 50 23 27 1021.4 1021.4 0.4
30/07:30pm 14.0 4.0 7.8 66 3.1 SW 50 57 27 31 1020.8 1020.8 0.4
30/07:00pm 14.0 4.0 8.0 67 3.0 SW 50 57 27 31 1020.2 1020.2 0.4
30/06:30pm 14.3 5.2 8.5 68 2.9 SW 46 54 25 29 1019.6 1019.6 0.4
30/06:00pm 14.6 5.2 8.8 68 2.9 SW 48 59 26 32 1019.2 1019.2 0.4
30/05:30pm 14.8 4.2 8.3 65 3.3 SW 54 61 29 33 1018.5 1018.4 0.4
30/05:00pm 15.1 5.6 9.9 71 2.7 SW 50 59 27 32 1018.1 1018.0 0.4
30/04:30pm 14.5 5.7 9.7 73 2.5 SW 46 57 25 31 1017.8 1017.7 0.4
30/04:00pm 15.5 5.5 9.4 67 3.2 WSW 52 59 28 32 1017.3 1017.2 0.4
30/03:30pm 15.6 5.2 9.3 66 3.2 WSW 54 61 29 33 1017.0 1016.9 0.4
30/03:00pm 15.7 5.7 9.4 66 3.3 WSW 52 61 28 33 1016.7 1016.6 0.4
30/02:30pm 15.9 6.3 9.3 65 3.4 WSW 50 59 27 32 1016.4 1016.3 0.4
30/02:00pm 16.4 8.3 10.9 70 2.9 WSW 44 52 24 28 1016.4 1016.3 0.4
30/01:30pm 16.0 7.0 10.3 69 3.0 WSW 48 56 26 30 1015.9 1015.8 0.4
30/01:00pm 16.0 6.6 10.3 69 3.0 WSW 50 59 27 32 1015.7 1015.6 0.4
30/12:30pm 15.9 5.1 10.0 68 3.1 WSW 57 65 31 35 1015.1 1015.1 0.4
30/12:00pm 15.7 4.8 10.9 73 2.6 WSW 59 70 32 38 1014.8 1014.8 0.4
30/11:30am 15.3 5.6 11.9 80 1.8 WSW 54 63 29 34 1014.5 1014.5 0.4
30/11:00am 14.3 4.0 11.8 85 1.3 WSW 57 69 31 37 1014.0 1014.0 0.4
30/10:30am 15.0 5.5 11.2 78 2.0 WSW 52 67 28 36 1013.8 1013.8 0.0
30/10:00am 16.4 6.3 12.4 77 2.2 W 57 69 31 37 1013.3 1013.3 0.0
30/09:30am 16.4 7.4 12.8 79 2.0 W 52 65 28 35 1012.9 1012.9 0.0
30/09:00am 16.1 6.6 12.3 78 2.1 W 54 63 29 34 1012.5 1012.5 -
30/08:30am 15.9 5.9 12.1 78 2.1 W 56 70 30 38 1011.9 1011.9 -
30/08:00am 16.0 7.4 12.9 82 1.7 W 50 63 27 34 1011.7 1011.7 -
30/07:46am 15.8 7.1 12.7 82 1.7 W 50 69 27 37 1011.7 1011.7 -
30/07:30am 15.7 7.4 12.6 82 1.7 W 48 61 26 33 1011.5 1011.5 -
30/07:00am 15.6 6.5 12.4 81 1.8 W 52 61 28 33 1011.1 1011.1 -
30/06:30am 15.5 5.6 12.3 81 1.8 W 56 74 30 40 1011.1 1011.1 -
30/06:23am 15.4 5.8 12.2 81 1.7 W 54 74 29 40 1010.8 1010.8 -
30/06:00am 15.7 7.1 12.8 83 1.6 W 50 65 27 35 1010.8 1010.8 -
30/05:30am 15.7 7.8 12.6 82 1.7 W 46 57 25 31 1009.9 1009.9 -
30/05:00am 15.8 8.4 12.5 81 1.8 WNW 43 52 23 28 1009.7 1009.7 -
30/04:30am 15.8 8.4 12.4 80 1.9 WNW 43 52 23 28 1009.6 1009.6 -
30/04:00am 15.7 8.6 12.3 80 1.9 WNW 41 48 22 26 1009.5 1009.5 -
30/03:30am 15.0 8.8 11.4 79 1.9 NW 35 43 19 23 1009.8 1009.8 -
30/03:00am 15.2 9.5 11.8 80 1.8 NW 33 43 18 23 1009.8 1009.8 0.0
30/02:30am 15.1 9.7 12.1 82 1.6 NNW 32 37 17 20 1009.7 1009.7 0.0
30/02:00am 15.0 9.9 12.0 82 1.6 NW 30 35 16 19 1010.1 1010.1 0.0
30/01:30am 14.9 10.3 12.4 85 1.4 NW 28 32 15 17 1010.4 1010.4 0.0
30/01:00am 14.9 10.5 12.8 87 1.2 NNW 28 33 15 18 1010.6 1010.6 0.0
30/12:30am 14.9 10.0 12.4 85 1.4 NNW 30 35 16 19 1011.0 1011.0 0.0
30/12:00am 15.1 10.7 12.8 86 1.3 NW 28 33 15 18 1011.5 1011.5 0.0
 
Date/Time
CST
Temp
°C
App
Temp
°C
Dew
Point
Rel
Hum
%
Delta-T
°C
Wind Press
QNH
hPa
Press
MSL
hPa
Rain
since 9 am
mm
Dir
 
Spd
km/h
Gust
km/h
Spd
kts
Gust
kts
29/11:30pm 15.4 11.4 13.1 86 1.3 NW 26 32 14 17 1012.2 1012.2 0.0
29/11:00pm 15.4 11.1 13.1 86 1.3 NW 28 33 15 18 1012.6 1012.6 0.0
29/10:30pm 15.6 11.3 13.3 86 1.3 NW 28 33 15 18 1013.0 1013.0 0.0
29/10:00pm 15.5 10.7 13.0 85 1.4 WNW 30 37 16 20 1013.4 1013.4 0.0
29/09:30pm 15.5 10.4 13.0 85 1.4 WNW 32 37 17 20 1013.5 1013.5 0.0
29/09:00pm 15.5 9.7 12.8 84 1.5 WNW 35 43 19 23 1013.4 1013.4 0.0
29/08:30pm 15.6 9.2 13.1 85 1.4 WNW 39 46 21 25 1013.3 1013.3 0.0
29/08:00pm 15.7 9.2 12.8 83 1.6 WNW 39 48 21 26 1012.9 1012.9 0.0
29/07:30pm 15.8 9.2 12.5 81 1.8 WNW 39 48 21 26 1012.8 1012.8 0.0
29/07:00pm 15.7 8.9 12.1 79 2.0 WNW 39 46 21 25 1012.4 1012.4 0.0
29/06:30pm 15.8 9.4 12.0 78 2.1 WNW 37 46 20 25 1012.4 1012.4 0.0
29/06:00pm 16.0 9.5 11.6 75 2.4 WNW 37 44 20 24 1012.5 1012.5 0.0
29/05:30pm 16.3 9.4 11.7 74 2.5 WNW 39 46 21 25 1012.4 1012.4 0.0
29/05:00pm 16.6 10.1 11.7 73 2.7 WNW 37 44 20 24 1012.3 1012.3 0.0
29/04:30pm 16.8 10.0 11.9 73 2.7 WNW 39 46 21 25 1012.2 1012.2 0.0
29/04:00pm 17.1 10.3 11.8 71 2.9 WNW 39 46 21 25 1012.3 1012.3 0.0
29/03:30pm 17.0 10.9 10.6 66 3.4 WNW 33 39 18 21 1012.1 1012.1 0.0
29/03:00pm 17.4 11.9 10.5 64 3.7 WNW 30 35 16 19 1012.0 1012.0 0.0
29/02:30pm 17.8 12.5 11.1 65 3.6 W 30 35 16 19 1012.4 1012.4 0.0
29/02:00pm 17.4 11.9 10.5 64 3.7 W 30 35 16 19 1012.6 1012.6 0.0
29/01:30pm 17.5 12.3 10.1 62 3.9 W 28 35 15 19 1012.8 1012.8 0.0
29/01:00pm 17.3 11.2 9.7 61 4.0 W 32 37 17 20 1013.1 1013.1 0.0
29/12:30pm 17.2 12.0 10.3 64 3.7 WNW 28 33 15 18 1013.7 1013.7 0.0
29/12:00pm 16.8 12.3 10.2 65 3.5 WNW 24 30 13 16 1014.0 1014.0 0.0
29/11:30am 16.1 10.6 10.4 69 3.0 W 30 33 16 18 1014.2 1014.2 0.0
29/11:00am 16.7 13.1 9.9 64 3.6 NW 19 26 10 14 1014.4 1014.4 0.0
29/10:30am 16.7 13.2 10.1 65 3.5 W 19 20 10 11 1014.3 1014.3 0.0
29/10:00am 16.1 11.2 10.0 67 3.2 W 26 33 14 18 1014.5 1014.5 0.0
29/09:30am 15.9 11.1 10.4 70 2.9 W 26 32 14 17 1014.5 1014.5 0.0
29/09:00am 15.2 12.1 10.2 72 2.6 W 17 20 9 11 1014.4 1014.4 0.0
29/08:30am 15.6 13.0 10.6 72 2.6 WSW 15 17 8 9 1014.2 1014.2 0.0
29/08:00am 15.1 11.5 10.7 75 2.3 WSW 20 24 11 13 1014.0 1014.0 0.0
29/07:30am 14.7 10.7 10.5 76 2.2 WSW 22 26 12 14 1013.6 1013.6 0.0
29/07:00am 14.4 9.6 10.4 77 2.1 WSW 26 32 14 17 1013.4 1013.4 0.0
29/06:30am 14.7 10.4 10.9 78 2.0 WSW 24 28 13 15 1013.2 1013.2 0.0
29/06:00am 14.6 9.6 10.8 78 2.0 WSW 28 33 15 18 1012.9 1012.9 0.0
29/05:30am 14.4 8.6 10.8 79 1.9 WSW 32 35 17 19 1012.7 1012.7 0.0
29/05:00am 14.7 9.0 11.7 82 1.6 W 33 39 18 21 1012.5 1012.5 0.0
29/04:30am 14.8 8.6 11.4 80 1.8 W 35 43 19 23 1012.4 1012.4 0.0
29/04:00am 15.1 9.0 11.7 80 1.8 W 35 41 19 22 1012.4 1012.4 0.0
29/03:30am 15.1 8.7 11.9 81 1.7 W 37 44 20 24 1012.4 1012.4 0.0
29/03:00am 15.2 8.0 12.0 81 1.7 W 41 48 22 26 1012.6 1012.6 0.0
29/02:30am 15.3 7.8 12.2 82 1.7 W 43 54 23 29 1012.8 1012.8 0.0
29/02:00am 15.5 8.0 12.1 80 1.9 W 43 54 23 29 1012.9 1012.9 0.0
29/01:30am 15.5 8.0 12.1 80 1.9 W 43 50 23 27 1012.8 1012.8 0.0
29/01:00am 15.4 7.9 12.0 80 1.8 WNW 43 54 23 29 1012.7 1012.7 0.0
29/12:30am 15.3 7.7 11.9 80 1.8 W 43 50 23 27 1012.8 1012.8 0.0
29/12:00am 15.2 8.0 11.8 80 1.8 WNW 41 50 22 27 1012.9 1012.9 0.0
 
Date/Time
CST
Temp
°C
App
Temp
°C
Dew
Point
Rel
Hum
%
Delta-T
°C
Wind Press
QNH
hPa
Press
MSL
hPa
Rain
since 9 am
mm
Dir
 
Spd
km/h
Gust
km/h
Spd
kts
Gust
kts
28/11:30pm 15.3 8.0 11.7 79 1.9 W 41 50 22 27 1012.9 1012.9 0.0
28/11:00pm 15.7 8.1 11.9 78 2.1 W 43 50 23 27 1013.1 1013.1 0.0
28/10:30pm 15.6 7.3 11.4 76 2.3 W 46 57 25 31 1013.0 1013.0 0.0
28/10:00pm 15.5 6.5 11.5 77 2.2 W 50 59 27 32 1012.8 1012.8 0.0
28/09:30pm 15.5 6.0 11.3 76 2.3 W 52 61 28 33 1012.6 1012.6 0.0
28/09:00pm 15.7 6.3 11.5 76 2.3 W 52 65 28 35 1012.5 1012.5 0.0
28/08:30pm 15.8 6.0 11.4 75 2.4 W 54 65 29 35 1012.1 1012.1 0.0
28/08:00pm 15.8 6.3 11.2 74 2.5 W 52 63 28 34 1011.6 1011.6 0.0
28/07:30pm 15.8 7.4 11.2 74 2.5 WNW 46 59 25 32 1011.2 1011.2 0.0
28/07:00pm 15.7 6.9 10.9 73 2.6 W 48 61 26 33 1010.8 1010.8 0.0
28/06:30pm 15.7 6.6 11.1 74 2.5 W 50 59 27 32 1010.3 1010.3 0.0
28/06:00pm 16.1 6.7 11.5 74 2.5 W 52 59 28 32 1010.0 1010.0 0.0
28/05:30pm 16.3 6.6 11.7 74 2.5 W 54 67 29 36 1009.3 1009.3 0.0
28/05:00pm 16.5 6.7 11.6 73 2.7 W 54 65 29 35 1009.0 1009.0 0.0
28/04:30pm 17.1 8.2 12.0 72 2.8 W 50 59 27 32 1008.6 1008.6 0.0
28/04:07pm 17.0 7.2 11.5 70 3.0 W 54 72 29 39 1008.0 1008.0 0.0
28/04:00pm 17.2 8.0 12.1 72 2.8 W 52 61 28 33 1008.3 1008.3 0.0
28/03:30pm 17.2 7.6 12.1 72 2.8 W 54 65 29 35 1008.0 1008.0 0.0
28/03:00pm 17.5 8.4 12.6 73 2.7 W 52 63 28 34 1007.9 1007.9 0.0
28/02:30pm 17.5 8.8 12.4 72 2.8 W 50 63 27 34 1007.8 1007.8 0.0
28/02:00pm 17.7 8.2 12.4 71 2.9 W 54 63 29 34 1007.7 1007.7 0.0
28/01:30pm 18.0 9.8 12.9 72 2.9 W 48 57 26 31 1007.7 1007.7 0.0
28/01:00pm 17.9 10.0 12.8 72 2.9 W 46 54 25 29 1007.5 1007.5 0.0
28/12:30pm 18.1 10.9 13.2 73 2.8 W 43 50 23 27 1007.5 1007.5 0.0
28/12:00pm 18.6 12.4 13.7 73 2.8 W 39 44 21 24 1007.3 1007.3 0.0
28/11:30am 18.5 14.1 14.0 75 2.6 W 30 37 16 20 1007.1 1007.1 0.0
28/11:00am 18.4 14.5 14.3 77 2.4 WNW 28 32 15 17 1007.0 1007.0 0.0
28/10:30am 18.9 16.1 14.4 75 2.6 NW 22 28 12 15 1006.4 1006.4 0.0
28/10:00am 18.3 16.2 13.6 74 2.7 NW 17 22 9 12 1006.1 1006.1 0.0
28/09:30am 18.3 16.9 13.4 73 2.8 N 13 17 7 9 1005.5 1005.5 0.0
28/09:00am 18.6 19.4 13.7 73 2.8 SW 2 7 1 4 1005.8 1005.8 -
28/08:30am 17.6 15.7 12.9 74 2.6 WSW 15 19 8 10 1006.2 1006.2 -
28/08:00am 17.9 12.7 12.8 72 2.9 W 32 39 17 21 1005.8 1005.8 -
28/07:30am 18.3 12.4 12.3 68 3.3 NW 35 39 19 21 1005.3 1005.3 -
28/07:00am 18.5 11.7 11.8 65 3.7 WNW 39 46 21 25 1005.2 1005.2 -
28/06:30am 19.0 11.0 11.1 60 4.3 WNW 44 52 24 28 1005.0 1005.0 -
28/06:00am 20.1 11.0 9.7 51 5.6 WNW 48 59 26 32 1004.0 1004.0 -
28/05:53am 19.8 11.1 10.0 53 5.3 NW 46 52 25 28 1003.9 1003.9 -
28/05:30am 19.9 11.0 9.2 50 5.7 N 46 54 25 29 1003.1 1003.1 -
28/05:17am 20.1 9.3 9.1 49 5.8 N 56 69 30 37 1002.0 1002.0 -
28/05:00am 19.9 7.8 9.5 51 5.5 N 63 74 34 40 999.8 999.8 -
28/04:30am 20.1 7.6 9.4 50 5.7 N 65 74 35 40 1000.0 1000.0 -
28/04:00am 19.9 8.7 9.8 52 5.4 N 59 69 32 37 1000.7 1000.7 -
28/03:30am 19.8 8.7 10.2 54 5.2 N 59 67 32 36 1001.1 1001.1 -
28/03:00am 19.9 8.8 10.3 54 5.2 N 59 67 32 36 1001.6 1001.6 0.0
28/02:30am 20.2 8.6 9.7 51 5.6 N 61 72 33 39 1002.3 1002.3 0.0
28/02:00am 20.6 9.3 9.5 49 5.9 N 59 69 32 37 1002.8 1002.8 0.0
28/01:30am 20.5 9.6 9.4 49 5.9 N 57 69 31 37 1003.5 1003.5 0.0
28/01:00am 20.1 9.0 10.2 53 5.3 N 59 65 32 35 1004.1 1004.1 0.0
28/12:30am 19.0 10.3 11.3 61 4.2 N 48 56 26 30 1005.1 1005.1 0.0
28/12:00am 18.8 10.1 11.4 62 4.1 N 48 54 26 29 1005.5 1005.5 0.0
 
Date/Time
CST
Temp
°C
App
Temp
°C
Dew
Point
Rel
Hum
%
Delta-T
°C
Wind Press
QNH
hPa
Press
MSL
hPa
Rain
since 9 am
mm
Dir
 
Spd
km/h
Gust
km/h
Spd
kts
Gust
kts
27/11:30pm 19.4 10.5 10.7 57 4.7 N 48 54 26 29 1005.9 1005.9 0.0

Other Formats:

Comma delimited format used in spreadsheet applications
http://www.bom.gov.au/fwo/IDS60801/IDS60801.94804.axf

JavaScript Object Notation format (JSON) in row-major order
http://www.bom.gov.au/fwo/IDS60801/IDS60801.94804.json